Date,TemperatureHighF,TemperatureAvgF,TemperatureLowF,DewpointHighF,DewpointAvgF,DewpointLowF,HumidityHigh,HumidityAvg,HumidityLow,PressureMaxIn,PressureMinIn,WindSpeedMaxMPH,WindSpeedAvgMPH,GustSpeedMaxMPH,PrecipitationSumIn
2014-1-1,19,17,13,9,4,0,70,59,51,30.46,30.29,5,2,14,0.00
2014-1-2,13,8,-2,5,0,-16,75,70,52,30.40,30.02,2,1,9,0.00
2014-1-3,6,-1,-8,-3,-11,-18,66,60,51,30.50,30.03,2,1,7,0.00
2014-1-4,32,18,-1,7,0,-10,65,48,33,30.45,30.14,5,1,15,0.01
2014-1-5,40,30,20,38,15,6,91,56,41,30.26,29.61,2,1,8,0.00
2014-1-6,49,31,6,44,19,-12,89,61,36,29.67,29.33,7,4,25,0.20
2014-1-7,7,4,0,-8,-14,-17,53,42,33,30.15,29.66,8,4,28,0.00
2014-1-8,20,13,7,4,-1,-10,62,52,44,30.35,30.15,5,2,15,0.00
2014-1-9,26,20,16,10,8,4,66,58,50,30.53,30.31,3,1,12,0.00
2014-1-10,38,29,17,28,21,7,82,73,63,30.34,29.93,1,0,5,0.09
2014-1-11,54,47,34,47,40,28,85,76,61,29.93,29.13,7,2,27,0.16
2014-1-12,41,36,31,30,26,22,79,69,62,29.87,29.30,7,2,21,0.01
2014-1-13,51,41,28,36,26,20,80,56,37,29.87,29.59,6,1,20,0.05
2014-1-14,44,40,32,40,36,24,88,84,74,29.73,29.54,2,0,5,0.27
2014-1-15,42,33,29,31,21,12,72,60,48,29.88,29.69,2,0,7,0.02
2014-1-16,35,29,25,19,15,12,74,55,44,29.89,29.74,2,0,9,0.00
2014-1-17,41,34,27,23,18,14,72,54,44,29.76,29.70,5,1,18,0.00
2014-1-18,29,24,20,19,15,9,80,66,57,29.76,29.66,2,1,12,0.00
2014-1-19,31,24,17,24,15,11,81,69,55,29.74,29.37,6,2,20,0.05
2014-1-20,31,22,8,26,14,-1,86,73,63,29.91,29.41,3,1,10,0.00
2014-1-21,8,0,-9,-2,-13,-22,63,54,41,30.04,29.91,2,1,7,0.00
2014-1-22,5,-4,-11,-10,-17,-25,65,53,46,30.02,29.90,2,0,5,0.00
2014-1-23,13,5,-2,0,-5,-11,67,62,50,30.19,29.96,1,0,5,0.00
2014-1-24,19,11,1,-3,-5,-8,65,50,33,30.25,29.67,3,1,20,0.00
2014-1-25,28,21,13,18,5,-5,78,51,33,29.67,29.17,6,2,25,0.00
2014-1-26,25,13,6,12,1,-6,75,59,43,29.69,29.45,3,1,13,0.00
2014-1-27,38,20,7,23,4,-11,76,50,38,29.99,29.21,8,4,25,0.00
2014-1-28,11,6,1,-8,-13,-19,60,42,34,30.23,29.99,6,2,18,0.00
2014-1-29,17,9,-3,0,-8,-14,60,46,34,30.15,29.94,6,2,18,0.00
2014-1-30,29,20,8,3,0,-4,58,41,30,30.26,29.83,7,2,22,0.01
2014-1-31,35,31,26,18,11,1,58,42,33,30.09,29.84,5,1,18,0.00